createdAt,value
2018-04-26T00:02:10.905Z,1.10
2018-04-26T00:04:38.387Z,1.50
2018-04-26T00:07:05.847Z,1.10
2018-04-26T00:09:33.327Z,1.20
2018-04-26T00:12:00.796Z,1.03
2018-04-26T00:14:28.376Z,1.10
2018-04-26T00:16:56.623Z,1.07
2018-04-26T00:19:24.180Z,1.03
2018-04-26T00:21:52.353Z,1.00
2018-04-26T00:24:19.835Z,1.10
2018-04-26T00:26:48.062Z,0.97
2018-04-26T00:29:15.536Z,1.40
2018-04-26T00:31:43.035Z,0.80
2018-04-26T00:34:11.281Z,1.07
2018-04-26T00:36:38.743Z,1.00
2018-04-26T00:39:06.229Z,1.00
2018-04-26T00:41:34.457Z,1.00
2018-04-26T00:44:01.929Z,1.00
2018-04-26T00:46:29.402Z,1.10
2018-04-26T00:48:57.052Z,0.90
2018-04-26T00:51:36.518Z,0.83
2018-04-26T00:54:04.745Z,0.90
2018-04-26T00:56:32.276Z,0.80
2018-04-26T00:58:59.832Z,1.00
2018-04-26T01:01:27.311Z,1.10
2018-04-26T01:03:54.798Z,0.90
2018-04-26T01:06:22.292Z,0.93
2018-04-26T01:08:49.775Z,1.13
2018-04-26T01:11:17.255Z,1.00
2018-04-26T01:13:44.721Z,0.90
2018-04-26T01:16:12.304Z,1.30
2018-04-26T01:18:40.535Z,0.97
2018-04-26T01:21:08.029Z,0.90
2018-04-26T01:23:36.269Z,0.87
2018-04-26T01:26:03.787Z,0.90
2018-04-26T01:28:31.366Z,1.00
2018-04-26T01:30:58.845Z,0.80
2018-04-26T01:33:26.297Z,0.93
2018-04-26T01:35:53.785Z,0.93
2018-04-26T01:38:21.256Z,1.00
2018-04-26T01:40:49.500Z,1.00
2018-04-26T01:43:16.969Z,1.10
2018-04-26T01:45:44.442Z,0.93
2018-04-26T01:48:11.914Z,1.03
2018-04-26T01:50:40.281Z,0.73
2018-04-26T01:53:08.584Z,1.30
2018-04-26T01:55:36.110Z,1.10
2018-04-26T01:58:03.709Z,1.00
2018-04-26T02:00:31.200Z,0.70
2018-04-26T02:02:58.675Z,1.00
2018-04-26T02:05:26.319Z,0.90
2018-04-26T02:07:54.531Z,1.10
2018-04-26T02:10:22.770Z,1.00
2018-04-26T02:12:50.233Z,1.30
2018-04-26T02:15:17.808Z,1.00
2018-04-26T02:17:45.271Z,1.30
2018-04-26T02:20:12.747Z,1.00
2018-04-26T02:22:40.288Z,1.00
2018-04-26T02:25:08.541Z,0.93
2018-04-26T02:27:36.014Z,0.90
2018-04-26T02:30:03.489Z,0.83
2018-04-26T02:32:31.740Z,1.13
2018-04-26T02:34:59.226Z,1.27
2018-04-26T02:37:27.457Z,1.40
2018-04-26T02:39:54.935Z,1.23
2018-04-26T02:42:23.173Z,1.40
2018-04-26T02:44:50.668Z,2.03
2018-04-26T02:47:18.230Z,1.53
2018-04-26T02:49:45.714Z,1.67
2018-04-26T02:52:13.944Z,1.30
2018-04-26T02:54:41.461Z,1.00
2018-04-26T02:57:09.023Z,1.27
2018-04-26T02:59:36.683Z,1.40
2018-04-26T03:02:04.161Z,1.20
2018-04-26T03:04:31.631Z,1.50
2018-04-26T03:06:59.108Z,1.20
2018-04-26T03:09:26.597Z,1.20
2018-04-26T03:11:54.080Z,1.13
2018-04-26T03:14:21.693Z,1.43
2018-04-26T03:16:49.957Z,1.20
2018-04-26T03:19:17.415Z,1.23
2018-04-26T03:21:44.971Z,1.40
2018-04-26T03:24:12.428Z,2.17
2018-04-26T03:26:39.912Z,1.10
2018-04-26T03:29:08.136Z,1.30
2018-04-26T03:31:35.620Z,1.47
2018-04-26T03:34:03.076Z,1.27
2018-04-26T03:36:30.564Z,1.10
2018-04-26T03:38:58.791Z,1.20
2018-04-26T03:41:26.371Z,1.27
2018-04-26T03:43:53.837Z,1.20
2018-04-26T03:46:22.087Z,1.33
2018-04-26T03:48:50.343Z,1.30
2018-04-26T03:51:17.889Z,3.70
2018-04-26T03:53:45.451Z,6.60
2018-04-26T03:56:12.980Z,1.70
2018-04-26T03:58:41.199Z,1.20
2018-04-26T04:01:20.619Z,1.50
2018-04-26T04:04:00.074Z,1.10
2018-04-26T04:06:27.552Z,1.40
2018-04-26T04:08:55.014Z,1.67
2018-04-26T04:11:22.576Z,1.53
2018-04-26T04:13:50.154Z,1.60
2018-04-26T04:16:17.568Z,1.37
2018-04-26T04:18:45.036Z,1.20
2018-04-26T04:21:12.530Z,1.33
2018-04-26T04:23:39.997Z,1.53
2018-04-26T04:26:07.587Z,1.50
2018-04-26T04:28:35.050Z,1.53
2018-04-26T04:31:02.537Z,1.40
2018-04-26T04:33:30.010Z,1.90
2018-04-26T04:35:58.258Z,1.90
2018-04-26T04:38:25.724Z,2.10
2018-04-26T04:40:53.205Z,1.53
2018-04-26T04:43:21.431Z,2.10
2018-04-26T04:45:49.289Z,1.80
2018-04-26T04:48:16.757Z,1.93
2018-04-26T04:50:44.350Z,2.03
2018-04-26T04:53:11.805Z,2.00
2018-04-26T04:55:39.296Z,2.60
2018-04-26T04:58:06.753Z,2.33
2018-04-26T05:00:34.244Z,5.07
2018-04-26T05:03:01.700Z,2.00
2018-04-26T05:05:29.176Z,2.20
2018-04-26T05:07:56.633Z,1.60
2018-04-26T05:10:24.104Z,1.80
2018-04-26T05:12:51.602Z,2.20
2018-04-26T05:15:19.062Z,2.10
2018-04-26T05:17:46.540Z,2.00
2018-04-26T05:20:13.999Z,1.53
2018-04-26T05:22:41.496Z,1.70
2018-04-26T05:25:09.720Z,1.63
2018-04-26T05:27:37.233Z,1.60
2018-04-26T05:30:04.789Z,2.10
2018-04-26T05:32:32.338Z,2.03
2018-04-26T05:35:00.613Z,1.53
2018-04-26T05:37:28.091Z,2.30
2018-04-26T05:39:56.308Z,1.93
2018-04-26T05:42:23.783Z,2.10
2018-04-26T05:44:51.247Z,1.67
2018-04-26T05:47:18.775Z,2.07
2018-04-26T05:49:46.953Z,2.07
2018-04-26T05:52:14.496Z,1.80
2018-04-26T05:54:41.963Z,2.13
2018-04-26T05:57:10.295Z,1.77
2018-04-26T05:59:38.528Z,1.60
2018-04-26T06:02:06.025Z,1.70
2018-04-26T06:04:33.505Z,1.47
2018-04-26T06:07:01.009Z,1.67
2018-04-26T06:09:28.509Z,1.50
2018-04-26T06:11:56.868Z,1.70
2018-04-26T06:14:24.372Z,1.30
2018-04-26T06:16:51.919Z,1.70
2018-04-26T06:19:19.348Z,1.60
2018-04-26T06:21:46.860Z,1.57
2018-04-26T06:24:14.510Z,1.67
2018-04-26T06:26:41.981Z,1.73
2018-04-26T06:29:09.467Z,1.53
2018-04-26T06:31:36.958Z,1.43
2018-04-26T06:34:05.335Z,1.20
2018-04-26T06:36:33.578Z,1.70
2018-04-26T06:39:01.062Z,1.93
2018-04-26T06:41:29.347Z,1.33
2018-04-26T06:43:57.568Z,1.63
2018-04-26T06:46:25.051Z,1.80
2018-04-26T06:48:52.529Z,1.30
2018-04-26T06:51:20.024Z,1.20
2018-04-26T06:53:47.499Z,1.30
2018-04-26T06:56:15.034Z,1.53
2018-04-26T06:58:42.510Z,1.80
2018-04-26T07:01:09.987Z,1.50
2018-04-26T07:03:37.467Z,1.73
2018-04-26T07:06:05.796Z,1.60
2018-04-26T07:08:33.995Z,1.80
2018-04-26T07:11:02.283Z,1.53
2018-04-26T07:13:29.754Z,1.90
2018-04-26T07:15:58.069Z,1.90
2018-04-26T07:18:25.577Z,1.80
2018-04-26T07:20:53.809Z,1.60
2018-04-26T07:23:22.849Z,1.87
2018-04-26T07:25:50.333Z,1.73
2018-04-26T07:28:17.819Z,1.47
2018-04-26T07:30:45.329Z,1.40
2018-04-26T07:33:13.588Z,1.47
2018-04-26T07:35:41.174Z,1.23
2018-04-26T07:38:09.447Z,1.33
2018-04-26T07:40:37.695Z,1.30
2018-04-26T07:43:05.175Z,1.80
2018-04-26T07:45:33.426Z,1.27
2018-04-26T07:48:00.911Z,0.90
2018-04-26T07:50:29.141Z,1.40
2018-04-26T07:52:56.864Z,1.27
2018-04-26T07:55:24.328Z,1.50
2018-04-26T07:57:51.866Z,1.20
2018-04-26T08:00:20.099Z,1.40
2018-04-26T08:02:47.683Z,1.20
2018-04-26T08:05:15.259Z,1.40
2018-04-26T08:07:42.845Z,1.50
2018-04-26T08:10:10.299Z,6.73
2018-04-26T08:12:37.791Z,4.50
2018-04-26T08:15:05.290Z,1.37
2018-04-26T08:17:33.593Z,1.30
2018-04-26T08:20:01.099Z,1.50
2018-04-26T08:22:30.069Z,2.50
2018-04-26T08:24:57.619Z,1.60
2018-04-26T08:27:25.877Z,1.33
2018-04-26T08:29:53.381Z,1.10
2018-04-26T08:32:20.873Z,1.10
2018-04-26T08:34:48.355Z,1.93
2018-04-26T08:37:15.824Z,1.40
2018-04-26T08:39:43.487Z,1.60
2018-04-26T08:42:11.090Z,1.00
2018-04-26T08:44:38.569Z,1.13
2018-04-26T08:47:06.042Z,1.40
2018-04-26T08:49:33.527Z,0.77
2018-04-26T08:52:01.062Z,1.40
2018-04-26T08:54:28.547Z,1.77
2018-04-26T08:56:56.032Z,6.47
2018-04-26T08:59:23.591Z,1.40
2018-04-26T09:01:51.400Z,1.20
2018-04-26T09:04:18.886Z,1.10
2018-04-26T09:06:46.370Z,1.00
2018-04-26T09:09:14.627Z,1.13
2018-04-26T09:11:42.449Z,1.07
2018-04-26T09:14:09.934Z,1.20
2018-04-26T09:16:37.420Z,1.10
2018-04-26T09:19:04.896Z,1.07
2018-04-26T09:21:33.308Z,0.80
2018-04-26T09:24:00.790Z,1.00
2018-04-26T09:26:28.295Z,1.20
2018-04-26T09:28:55.760Z,1.00
2018-04-26T09:31:24.014Z,0.90
2018-04-26T09:33:52.277Z,2.57
2018-04-26T09:36:19.830Z,1.73
2018-04-26T09:38:47.391Z,1.47
2018-04-26T09:41:15.598Z,1.30
2018-04-26T09:43:43.866Z,1.00
2018-04-26T09:46:12.132Z,1.40
2018-04-26T09:48:39.618Z,1.27
2018-04-26T09:51:07.159Z,1.13
2018-04-26T09:53:35.431Z,1.30
2018-04-26T09:56:03.707Z,1.70
2018-04-26T09:58:32.027Z,1.00
2018-04-26T10:00:59.585Z,1.40
2018-04-26T10:03:27.069Z,0.73
2018-04-26T10:05:57.466Z,1.10
2018-04-26T10:08:24.942Z,1.77
2018-04-26T10:10:52.398Z,1.20
2018-04-26T10:13:19.931Z,1.27
2018-04-26T10:15:47.387Z,1.00
2018-04-26T10:18:14.918Z,1.17
2018-04-26T10:20:43.159Z,1.00
2018-04-26T10:23:10.649Z,1.20
2018-04-26T10:25:39.141Z,1.43
2018-04-26T10:28:07.412Z,2.13
2018-04-26T10:30:35.654Z,1.83
2018-04-26T10:33:03.227Z,1.50
2018-04-26T10:35:31.464Z,1.57
2018-04-26T10:37:58.944Z,1.20
2018-04-26T10:40:26.421Z,1.50
2018-04-26T10:42:54.680Z,1.30
2018-04-26T10:45:22.150Z,1.20
2018-04-26T10:47:49.645Z,1.13
2018-04-26T10:50:17.112Z,1.40
2018-04-26T10:52:44.614Z,1.13
2018-04-26T10:55:12.074Z,1.10
2018-04-26T10:57:39.566Z,1.10
2018-04-26T11:00:07.120Z,1.13
2018-04-26T11:02:34.544Z,6.63
2018-04-26T11:05:02.133Z,2.07
2018-04-26T11:07:30.384Z,1.40
2018-04-26T11:09:57.843Z,1.30
2018-04-26T11:12:25.353Z,1.20
2018-04-26T11:14:52.841Z,1.60
2018-04-26T11:17:20.371Z,1.67
2018-04-26T11:19:48.564Z,1.70
2018-04-26T11:22:16.093Z,1.90
2018-04-26T11:24:43.568Z,1.30
2018-04-26T11:27:11.348Z,1.00
2018-04-26T11:29:38.821Z,1.40
2018-04-26T11:32:06.316Z,1.00
2018-04-26T11:34:33.777Z,1.90
2018-04-26T11:37:01.283Z,1.40
2018-04-26T11:39:28.768Z,1.23
2018-04-26T11:41:57.039Z,1.60
2018-04-26T11:44:25.050Z,1.50
2018-04-26T11:46:52.520Z,1.33
2018-04-26T11:49:20.009Z,1.40
2018-04-26T11:51:47.485Z,1.70
2018-04-26T11:54:15.971Z,1.20
2018-04-26T11:56:44.289Z,4.20
2018-04-26T11:59:11.777Z,3.87
2018-04-26T12:01:39.243Z,2.30
2018-04-26T12:04:07.572Z,1.37
2018-04-26T12:06:35.040Z,1.20
2018-04-26T12:09:02.588Z,1.63
2018-04-26T12:11:30.052Z,1.23
2018-04-26T12:13:57.571Z,1.50
2018-04-26T12:16:25.828Z,1.20
2018-04-26T12:18:53.309Z,1.20
2018-04-26T12:21:21.556Z,1.03
2018-04-26T12:23:49.038Z,1.23
2018-04-26T12:26:17.399Z,1.33
2018-04-26T12:28:45.729Z,1.10
2018-04-26T12:31:13.234Z,1.40
2018-04-26T12:33:40.711Z,1.30
2018-04-26T12:36:08.939Z,1.20
2018-04-26T12:38:36.426Z,1.77
2018-04-26T12:41:03.928Z,0.90
2018-04-26T12:43:31.411Z,1.20
2018-04-26T12:45:58.928Z,1.10
2018-04-26T12:48:26.415Z,1.17
2018-04-26T12:50:53.881Z,1.33
2018-04-26T12:53:21.351Z,1.17
2018-04-26T12:55:48.812Z,1.40
2018-04-26T12:58:16.335Z,1.33
2018-04-26T13:00:43.802Z,1.20
2018-04-26T13:03:11.305Z,1.60
2018-04-26T13:05:38.772Z,0.90
2018-04-26T13:08:07.034Z,1.03
2018-04-26T13:10:34.503Z,1.10
2018-04-26T13:13:02.751Z,1.30
2018-04-26T13:15:30.213Z,1.07
2018-04-26T13:17:57.700Z,1.20
2018-04-26T13:20:25.998Z,1.10
2018-04-26T13:22:54.411Z,1.90
2018-04-26T13:25:21.867Z,2.60
2018-04-26T13:27:49.459Z,0.87
2018-04-26T13:30:17.772Z,1.10
2018-04-26T13:32:45.256Z,1.17
2018-04-26T13:35:12.716Z,1.10
2018-04-26T13:37:40.209Z,1.10
2018-04-26T13:42:42.379Z,1.10
2018-04-26T13:45:09.857Z,1.30
2018-04-26T13:47:37.353Z,1.10
2018-04-26T13:50:04.819Z,1.00
2018-04-26T13:52:32.304Z,1.03
2018-04-26T13:54:59.812Z,1.30
2018-04-26T13:57:27.307Z,1.13
2018-04-26T13:59:54.772Z,1.03
2018-04-26T14:02:22.251Z,1.13
2018-04-26T14:04:49.738Z,1.00
2018-04-26T14:07:17.306Z,1.20
2018-04-26T14:09:44.784Z,1.13
2018-04-26T14:12:12.285Z,0.97
2018-04-26T14:14:40.573Z,1.00
2018-04-26T14:17:08.813Z,1.07
2018-04-26T14:19:36.686Z,1.07
2018-04-26T14:22:04.969Z,1.00
2018-04-26T14:24:32.475Z,1.10
2018-04-26T14:26:59.962Z,1.40
2018-04-26T14:29:27.494Z,1.13
2018-04-26T14:31:56.426Z,1.20
2018-04-26T14:34:24.668Z,1.10
2018-04-26T14:36:52.143Z,1.23
2018-04-26T14:39:19.731Z,1.40
2018-04-26T14:41:47.192Z,1.07
2018-04-26T14:44:16.371Z,1.20
2018-04-26T14:46:44.611Z,1.20
2018-04-26T14:49:12.115Z,1.30
2018-04-26T14:51:39.583Z,1.33
2018-04-26T14:54:07.839Z,1.30
2018-04-26T14:56:35.337Z,1.30
2018-04-26T14:59:02.836Z,1.63
2018-04-26T15:01:30.312Z,1.10
2018-04-26T15:03:57.817Z,1.17
2018-04-26T15:06:25.342Z,1.10
2018-04-26T15:08:53.020Z,1.30
2018-04-26T15:11:21.271Z,1.13
2018-04-26T15:13:48.766Z,3.47
2018-04-26T15:16:16.262Z,2.40
2018-04-26T15:18:43.753Z,1.40
2018-04-26T15:21:11.218Z,1.33
2018-04-26T15:23:39.476Z,1.47
2018-04-26T15:26:06.939Z,1.30
2018-04-26T15:28:35.213Z,0.73
2018-04-26T15:31:02.675Z,1.33
2018-04-26T15:33:31.020Z,1.10
2018-04-26T15:35:58.491Z,0.90
2018-04-26T15:38:25.975Z,0.90
2018-04-26T15:40:54.353Z,0.90
2018-04-26T15:43:22.609Z,1.50
2018-04-26T15:45:50.083Z,0.90
2018-04-26T15:48:18.403Z,1.20
2018-04-26T15:50:52.861Z,1.10
2018-04-26T15:53:32.218Z,1.10
2018-04-26T15:56:12.431Z,1.00
2018-04-26T16:02:23.429Z,1.63
2018-04-26T16:05:02.659Z,1.00
2018-04-26T16:07:49.584Z,1.23
2018-04-26T16:10:28.995Z,1.45
2018-04-26T16:13:14.302Z,1.08
2018-04-26T16:19:09.909Z,1.20
2018-04-26T16:21:49.324Z,0.90
2018-04-26T16:24:34.508Z,1.07
2018-04-26T16:27:19.780Z,1.00
2018-04-26T16:29:59.100Z,1.10
2018-04-26T16:32:38.509Z,1.20
2018-04-26T16:35:20.805Z,3.07
2018-04-26T16:38:05.964Z,1.30
2018-04-26T16:40:33.474Z,1.27
2018-04-26T16:43:00.959Z,1.03
2018-04-26T16:45:28.478Z,1.30
2018-04-26T16:47:56.759Z,1.30
2018-04-26T16:50:24.236Z,1.00
2018-04-26T16:52:51.735Z,1.50
2018-04-26T16:55:19.435Z,1.10
2018-04-26T16:57:47.696Z,1.40
2018-04-26T17:00:15.943Z,1.07
2018-04-26T17:02:43.423Z,1.37
2018-04-26T17:05:10.881Z,1.40
2018-04-26T17:07:39.150Z,1.00
2018-04-26T17:10:06.627Z,1.23
2018-04-26T17:12:34.885Z,1.87
2018-04-26T17:15:02.391Z,4.57
2018-04-26T17:17:29.908Z,3.07
2018-04-26T17:19:57.473Z,1.33
2018-04-26T17:22:25.736Z,1.47
2018-04-26T17:24:53.205Z,1.20
2018-04-26T17:27:21.461Z,1.10
2018-04-26T17:29:48.927Z,1.30
2018-04-26T17:32:16.432Z,1.40
2018-04-26T17:34:43.993Z,1.10
2018-04-26T17:37:11.460Z,1.10
2018-04-26T17:39:38.929Z,1.10
2018-04-26T17:42:06.409Z,1.47
2018-04-26T17:44:33.915Z,1.40
2018-04-26T17:47:01.399Z,1.20
2018-04-26T17:49:28.901Z,1.40
2018-04-26T17:51:57.176Z,1.80
2018-04-26T17:54:25.404Z,1.47
2018-04-26T17:56:52.921Z,2.33
2018-04-26T17:59:21.158Z,2.40
2018-04-26T18:01:48.645Z,1.57
2018-04-26T18:04:16.889Z,1.57
2018-04-26T18:06:44.355Z,1.23
2018-04-26T18:09:11.829Z,1.33
2018-04-26T18:11:40.075Z,1.43
2018-04-26T18:14:07.602Z,2.93
2018-04-26T18:16:35.081Z,2.10
2018-04-26T18:19:04.070Z,1.50
2018-04-26T18:21:31.569Z,1.37
2018-04-26T18:23:59.804Z,1.30
2018-04-26T18:26:27.287Z,1.30
2018-04-26T18:28:54.752Z,1.30
2018-04-26T18:31:23.737Z,1.30
2018-04-26T18:33:51.953Z,1.37
2018-04-26T18:36:19.456Z,1.50
2018-04-26T18:38:46.926Z,1.87
2018-04-26T18:41:14.519Z,1.80
2018-04-26T18:43:42.013Z,1.63
2018-04-26T18:46:09.502Z,2.40
2018-04-26T18:48:38.493Z,1.83
2018-04-26T18:51:06.053Z,2.30
2018-04-26T18:53:33.457Z,1.30
2018-04-26T18:56:00.933Z,1.83
2018-04-26T18:58:28.473Z,1.40
2018-04-26T19:00:56.032Z,1.30
2018-04-26T19:03:23.514Z,1.47
2018-04-26T19:05:50.981Z,1.57
2018-04-26T19:08:18.462Z,1.47
2018-04-26T19:10:45.964Z,1.47
2018-04-26T19:13:13.480Z,1.57
2018-04-26T19:15:40.995Z,1.23
2018-04-26T19:18:08.458Z,1.30
2018-04-26T19:20:35.941Z,1.43
2018-04-26T19:23:03.427Z,1.47
2018-04-26T19:25:32.651Z,1.33
2018-04-26T19:28:00.156Z,1.50
2018-04-26T19:30:27.868Z,1.30
2018-04-26T19:32:55.431Z,1.50
2018-04-26T19:35:22.986Z,2.67
2018-04-26T19:37:50.475Z,6.23
2018-04-26T19:40:17.957Z,2.60
2018-04-26T19:42:46.221Z,1.60
2018-04-26T19:45:13.702Z,1.70
2018-04-26T19:47:41.988Z,2.00
2018-04-26T19:50:10.228Z,1.43
2018-04-26T19:52:37.724Z,1.50
2018-04-26T19:55:06.030Z,1.67
2018-04-26T19:57:33.511Z,1.73
2018-04-26T20:00:00.985Z,1.37
2018-04-26T20:02:28.468Z,1.67
2018-04-26T20:04:56.706Z,1.77
2018-04-26T20:07:24.197Z,1.83
2018-04-26T20:09:52.497Z,2.07
2018-04-26T20:12:19.922Z,1.67
2018-04-26T20:14:48.157Z,2.20
2018-04-26T20:17:15.645Z,3.60
2018-04-26T20:19:43.107Z,2.07
2018-04-26T20:22:11.364Z,1.67
2018-04-26T20:24:38.831Z,2.47
2018-04-26T20:27:06.443Z,2.07
2018-04-26T20:29:33.918Z,1.70
2018-04-26T20:32:01.427Z,1.40
2018-04-26T20:34:29.728Z,1.67
2018-04-26T20:36:57.233Z,2.00
2018-04-26T20:39:24.716Z,2.10
2018-04-26T20:41:54.785Z,2.00
2018-04-26T20:44:35.147Z,2.60
2018-04-26T20:47:02.648Z,2.67
2018-04-26T20:49:30.907Z,3.30
2018-04-26T20:51:58.380Z,3.07
2018-04-26T20:54:25.880Z,2.17
2018-04-26T20:56:53.400Z,2.40
2018-04-26T20:59:21.635Z,1.90
2018-04-26T21:01:49.128Z,2.00
2018-04-26T21:04:17.445Z,2.20
2018-04-26T21:06:44.953Z,2.13
2018-04-26T21:09:12.435Z,1.93
2018-04-26T21:11:40.712Z,2.10
2018-04-26T21:14:09.061Z,2.10
2018-04-26T21:16:36.488Z,2.07
2018-04-26T21:19:04.023Z,1.80
2018-04-26T21:21:31.521Z,2.00
2018-04-26T21:23:59.041Z,2.20
2018-04-26T21:26:26.509Z,1.97
2018-04-26T21:28:54.059Z,1.73
2018-04-26T21:31:21.539Z,1.80
2018-04-26T21:33:49.058Z,1.80
2018-04-26T21:36:16.545Z,2.27
2018-04-26T21:38:44.087Z,2.10
2018-04-26T21:41:11.553Z,2.10
2018-04-26T21:43:39.068Z,2.23
2018-04-26T21:46:07.305Z,2.07
2018-04-26T21:48:34.841Z,1.90
2018-04-26T21:51:07.995Z,1.70
2018-04-26T21:53:42.006Z,1.90
2018-04-26T21:56:16.013Z,1.80
2018-04-26T21:58:49.919Z,2.13
2018-04-26T22:01:23.878Z,1.70
2018-04-26T22:06:48.715Z,2.00
2018-04-26T22:09:16.335Z,1.87
2018-04-26T22:11:43.799Z,1.77
2018-04-26T22:14:11.300Z,2.40
2018-04-26T22:16:38.800Z,1.60
2018-04-26T22:19:06.282Z,1.80
2018-04-26T22:21:33.748Z,1.53
2018-04-26T22:24:01.229Z,1.77
2018-04-26T22:26:28.682Z,2.00
2018-04-26T22:28:56.165Z,1.83
2018-04-26T22:31:24.394Z,2.03
2018-04-26T22:33:51.871Z,2.40
2018-04-26T22:36:19.366Z,2.10
2018-04-26T22:38:47.604Z,1.63
2018-04-26T22:41:15.068Z,1.93
2018-04-26T22:43:42.555Z,2.00
2018-04-26T22:46:10.779Z,2.13
2018-04-26T22:48:38.284Z,1.93
2018-04-26T22:51:06.516Z,2.13
2018-04-26T22:53:34.004Z,1.60
2018-04-26T22:56:01.483Z,1.77
2018-04-26T22:58:29.739Z,2.00
2018-04-26T23:00:57.979Z,2.13
2018-04-26T23:03:25.472Z,1.90
2018-04-26T23:05:53.724Z,2.23
2018-04-26T23:08:21.207Z,2.50
2018-04-26T23:10:49.453Z,2.20
2018-04-26T23:13:16.955Z,2.80
2018-04-26T23:15:45.201Z,3.07
2018-04-26T23:18:12.694Z,3.47
2018-04-26T23:20:40.163Z,2.60
2018-04-26T23:23:07.652Z,2.90
2018-04-26T23:25:35.116Z,2.93
2018-04-26T23:28:02.626Z,4.27
2018-04-26T23:30:30.108Z,3.90
2018-04-26T23:32:57.602Z,8.37
2018-04-26T23:35:25.082Z,10.53
2018-04-26T23:37:53.328Z,13.40
2018-04-26T23:40:23.385Z,16.37
2018-04-26T23:42:51.023Z,24.77
2018-04-26T23:45:18.509Z,26.77
2018-04-26T23:47:46.081Z,20.37
2018-04-26T23:50:13.640Z,10.17
2018-04-26T23:52:41.170Z,6.90
2018-04-26T23:55:09.476Z,4.47
2018-04-26T23:57:36.931Z,4.27
